Capanda Airport


Codes: AO-KNP/KNP
Name: Capanda Airport
City: Capanda
Country: Angola
Elevation: 3366 ft.
Wikipedia:

Photos at Capanda Airport


   Photos courtesy of SpottingLog. You can add your own sightings and photos by signing up for a free trial today.



No photos found.

Weather at Capanda Airport


Time (UTC)DescriptionTempratureWindCloud coverageVisibilityPressureHumidity
21-Feb-2024 03:00Light Rain20°C2 mph, SE100%10000m1011hPa96%
21-Feb-2024 06:00Light Rain20°C2 mph, SE100%10000m1012hPa95%
21-Feb-2024 09:00Broken Clouds27°C2 mph, SE68%10000m1011hPa70%
21-Feb-2024 12:00Broken Clouds30°C4 mph, E54%10000m1008hPa54%
21-Feb-2024 15:00Light Rain29°C7 mph, NE45%10000m1006hPa67%
21-Feb-2024 18:00Light Rain23°C0 mph, SW61%10000m1007hPa87%
21-Feb-2024 21:00Light Rain21°C2 mph, W99%10000m1010hPa93%
22-Feb-2024 00:00Light Rain20°C2 mph, SW99%10000m1009hPa97%
22-Feb-2024 03:00Light Rain20°C2 mph, W100%8414m1009hPa99%
22-Feb-2024 06:00Light Rain21°C0 mph, SW100%10000m1010hPa98%
22-Feb-2024 09:00Overcast Clouds25°C2 mph, NW100%10000m1010hPa83%
22-Feb-2024 12:00Light Rain29°C2 mph, NW87%10000m1007hPa63%
22-Feb-2024 15:00Light Rain26°C7 mph, NW97%10000m1006hPa83%
22-Feb-2024 18:00Light Rain21°C4 mph, W98%10000m1009hPa95%
22-Feb-2024 21:00Moderate Rain20°C7 mph, NW100%3173m1012hPa99%
23-Feb-2024 00:00Moderate Rain20°C7 mph, NW100%587m1011hPa99%
23-Feb-2024 03:00Light Rain20°C4 mph, NW100%713m1011hPa99%
23-Feb-2024 06:00Light Rain20°C2 mph, NW100%10000m1013hPa99%
23-Feb-2024 09:00Light Rain22°C2 mph, NE100%10000m1013hPa87%
23-Feb-2024 12:00Light Rain22°C4 mph, SE100%10000m1010hPa88%
23-Feb-2024 15:00Overcast Clouds25°C0 mph, N100%10000m1008hPa71%
23-Feb-2024 18:00Overcast Clouds20°C2 mph, W99%10000m1010hPa94%
23-Feb-2024 21:00Overcast Clouds19°C2 mph, W97%10000m1013hPa96%
24-Feb-2024 00:00Overcast Clouds20°C4 mph, NW98%3232m1013hPa99%
24-Feb-2024 03:00Overcast Clouds20°C2 mph, NW100%10000m1012hPa97%
24-Feb-2024 06:00Overcast Clouds20°C2 mph, SE100%10000m1014hPa95%
24-Feb-2024 09:00Overcast Clouds21°C2 mph, NE100%10000m1016hPa92%
24-Feb-2024 12:00Light Rain21°C2 mph, SE100%10000m1013hPa92%
24-Feb-2024 15:00Overcast Clouds23°C2 mph, E100%10000m1012hPa87%
24-Feb-2024 18:00Light Rain20°C0 mph, S100%10000m1013hPa96%
24-Feb-2024 21:00Light Rain19°C2 mph, S97%10000m1014hPa97%
25-Feb-2024 00:00Overcast Clouds19°C2 mph, SE89%10000m1013hPa96%
25-Feb-2024 03:00Overcast Clouds19°C2 mph, NW100%10000m1013hPa96%
25-Feb-2024 06:00Overcast Clouds19°C2 mph, N100%10000m1015hPa97%
25-Feb-2024 09:00Broken Clouds26°C0 mph, E82%10000m1014hPa71%
25-Feb-2024 12:00Light Rain28°C2 mph, N62%9113m1011hPa65%
25-Feb-2024 15:00Moderate Rain26°C4 mph, NW37%9906m1010hPa80%
25-Feb-2024 18:00Moderate Rain20°C2 mph, NW55%10000m1013hPa96%
25-Feb-2024 21:00Moderate Rain19°C4 mph, NW67%10000m1016hPa98%
26-Feb-2024 00:00Light Rain19°C4 mph, NW83%931m1014hPa99%